sensor_id;sensor_type;location;lat;lon;timestamp;temperature;humidity
36416;DHT22;22447;44.530;18.620;2023-06-10T00:00:42;15.90;99.90
36416;DHT22;22447;44.530;18.620;2023-06-10T00:03:10;16.00;99.90
36416;DHT22;22447;44.530;18.620;2023-06-10T00:05:36;15.90;99.90
36416;DHT22;22447;44.530;18.620;2023-06-10T00:08:05;15.90;99.90
36416;DHT22;22447;44.530;18.620;2023-06-10T00:10:35;15.90;99.90
36416;DHT22;22447;44.530;18.620;2023-06-10T00:13:02;15.80;99.90
36416;DHT22;22447;44.530;18.620;2023-06-10T00:15:29;15.80;99.90
36416;DHT22;22447;44.530;18.620;2023-06-10T00:17:55;15.90;99.90
36416;DHT22;22447;44.530;18.620;2023-06-10T00:20:21;15.80;99.90
36416;DHT22;22447;44.530;18.620;2023-06-10T00:22:50;15.80;99.90
36416;DHT22;22447;44.530;18.620;2023-06-10T00:25:16;15.80;99.90
36416;DHT22;22447;44.530;18.620;2023-06-10T00:27:42;15.70;99.90
36416;DHT22;22447;44.530;18.620;2023-06-10T00:30:09;15.70;99.90
36416;DHT22;22447;44.530;18.620;2023-06-10T00:32:36;15.70;99.90
36416;DHT22;22447;44.530;18.620;2023-06-10T00:35:06;15.60;99.90
36416;DHT22;22447;44.530;18.620;2023-06-10T00:37:33;15.70;99.90
36416;DHT22;22447;44.530;18.620;2023-06-10T00:40:04;15.70;99.90
36416;DHT22;22447;44.530;18.620;2023-06-10T00:42:31;15.70;99.90
36416;DHT22;22447;44.530;18.620;2023-06-10T00:44:57;15.70;99.90
36416;DHT22;22447;44.530;18.620;2023-06-10T00:47:23;15.70;99.90
36416;DHT22;22447;44.530;18.620;2023-06-10T00:49:51;15.60;99.90
36416;DHT22;22447;44.530;18.620;2023-06-10T00:52:18;15.60;99.90
36416;DHT22;22447;44.530;18.620;2023-06-10T00:54:45;15.60;99.90
36416;DHT22;22447;44.530;18.620;2023-06-10T00:57:12;15.60;99.90
36416;DHT22;22447;44.530;18.620;2023-06-10T00:59:44;15.50;99.90
36416;DHT22;22447;44.530;18.620;2023-06-10T01:02:12;15.50;99.90
36416;DHT22;22447;44.530;18.620;2023-06-10T01:04:38;15.50;99.90
36416;DHT22;22447;44.530;18.620;2023-06-10T01:07:25;15.50;99.90
36416;DHT22;22447;44.530;18.620;2023-06-10T01:10:20;15.30;99.90
36416;DHT22;22447;44.530;18.620;2023-06-10T01:13:07;15.40;99.90
36416;DHT22;22447;44.530;18.620;2023-06-10T01:15:38;15.40;99.90
36416;DHT22;22447;44.530;18.620;2023-06-10T01:18:08;15.40;99.90
36416;DHT22;22447;44.530;18.620;2023-06-10T01:20:36;15.40;99.90
36416;DHT22;22447;44.530;18.620;2023-06-10T01:23:06;15.40;99.90
36416;DHT22;22447;44.530;18.620;2023-06-10T01:25:34;15.40;99.90
36416;DHT22;22447;44.530;18.620;2023-06-10T01:28:14;15.40;99.90
36416;DHT22;22447;44.530;18.620;2023-06-10T01:30:47;15.40;99.90
36416;DHT22;22447;44.530;18.620;2023-06-10T01:33:19;15.40;99.90
36416;DHT22;22447;44.530;18.620;2023-06-10T01:35:50;15.40;99.90
36416;DHT22;22447;44.530;18.620;2023-06-10T01:38:19;15.30;99.90
36416;DHT22;22447;44.530;18.620;2023-06-10T01:40:46;15.20;99.90
36416;DHT22;22447;44.530;18.620;2023-06-10T01:43:12;15.30;99.90
36416;DHT22;22447;44.530;18.620;2023-06-10T01:45:38;15.20;99.90
36416;DHT22;22447;44.530;18.620;2023-06-10T01:48:05;15.20;99.90
36416;DHT22;22447;44.530;18.620;2023-06-10T01:50:31;15.20;99.90
36416;DHT22;22447;44.530;18.620;2023-06-10T01:52:58;15.20;99.90
36416;DHT22;22447;44.530;18.620;2023-06-10T01:55:24;15.20;99.90
36416;DHT22;22447;44.530;18.620;2023-06-10T01:57:50;15.10;99.90
36416;DHT22;22447;44.530;18.620;2023-06-10T02:00:17;15.10;99.90
36416;DHT22;22447;44.530;18.620;2023-06-10T02:02:44;15.10;99.90
36416;DHT22;22447;44.530;18.620;2023-06-10T02:05:10;15.10;99.90
36416;DHT22;22447;44.530;18.620;2023-06-10T02:07:36;15.10;99.90
36416;DHT22;22447;44.530;18.620;2023-06-10T02:10:02;15.10;99.90
36416;DHT22;22447;44.530;18.620;2023-06-10T02:12:28;15.00;99.90
36416;DHT22;22447;44.530;18.620;2023-06-10T02:14:54;15.00;99.90
36416;DHT22;22447;44.530;18.620;2023-06-10T02:17:20;15.10;99.90
36416;DHT22;22447;44.530;18.620;2023-06-10T02:19:46;15.10;99.90
36416;DHT22;22447;44.530;18.620;2023-06-10T02:22:22;15.10;99.90
36416;DHT22;22447;44.530;18.620;2023-06-10T02:24:49;15.10;99.90
36416;DHT22;22447;44.530;18.620;2023-06-10T02:27:16;15.10;99.90
36416;DHT22;22447;44.530;18.620;2023-06-10T02:29:42;15.10;99.90
36416;DHT22;22447;44.530;18.620;2023-06-10T02:32:10;15.10;99.90
36416;DHT22;22447;44.530;18.620;2023-06-10T02:34:36;15.00;99.90
36416;DHT22;22447;44.530;18.620;2023-06-10T02:37:06;15.00;99.90
36416;DHT22;22447;44.530;18.620;2023-06-10T02:39:32;15.00;99.90
36416;DHT22;22447;44.530;18.620;2023-06-10T02:41:58;15.00;99.90
36416;DHT22;22447;44.530;18.620;2023-06-10T02:44:24;14.90;99.90
36416;DHT22;22447;44.530;18.620;2023-06-10T02:46:50;15.00;99.90
36416;DHT22;22447;44.530;18.620;2023-06-10T02:49:16;14.90;99.90
36416;DHT22;22447;44.530;18.620;2023-06-10T02:51:44;14.90;99.90
36416;DHT22;22447;44.530;18.620;2023-06-10T02:54:10;14.90;99.90
36416;DHT22;22447;44.530;18.620;2023-06-10T02:56:36;14.90;99.90
36416;DHT22;22447;44.530;18.620;2023-06-10T02:59:11;14.90;99.90
36416;DHT22;22447;44.530;18.620;2023-06-10T03:01:37;14.80;99.90
36416;DHT22;22447;44.530;18.620;2023-06-10T03:04:07;14.80;99.90
36416;DHT22;22447;44.530;18.620;2023-06-10T03:06:35;14.70;99.90
36416;DHT22;22447;44.530;18.620;2023-06-10T03:09:16;14.70;99.90
36416;DHT22;22447;44.530;18.620;2023-06-10T03:11:46;14.70;99.90
36416;DHT22;22447;44.530;18.620;2023-06-10T03:14:12;14.60;99.90
36416;DHT22;22447;44.530;18.620;2023-06-10T03:16:38;14.60;99.90
36416;DHT22;22447;44.530;18.620;2023-06-10T03:19:07;14.70;99.90
36416;DHT22;22447;44.530;18.620;2023-06-10T03:21:35;14.60;99.90
36416;DHT22;22447;44.530;18.620;2023-06-10T03:24:04;14.70;99.90
36416;DHT22;22447;44.530;18.620;2023-06-10T03:26:32;14.70;99.90
36416;DHT22;22447;44.530;18.620;2023-06-10T03:28:58;14.70;99.90
36416;DHT22;22447;44.530;18.620;2023-06-10T03:31:25;14.70;99.90
36416;DHT22;22447;44.530;18.620;2023-06-10T03:33:52;14.70;99.90
36416;DHT22;22447;44.530;18.620;2023-06-10T03:36:19;14.70;99.90
36416;DHT22;22447;44.530;18.620;2023-06-10T03:38:47;14.80;99.90
36416;DHT22;22447;44.530;18.620;2023-06-10T03:41:13;14.90;99.90
36416;DHT22;22447;44.530;18.620;2023-06-10T03:43:41;15.00;99.90
36416;DHT22;22447;44.530;18.620;2023-06-10T03:46:08;14.90;99.90
36416;DHT22;22447;44.530;18.620;2023-06-10T03:48:34;15.00;99.90
36416;DHT22;22447;44.530;18.620;2023-06-10T03:51:00;15.10;99.90
36416;DHT22;22447;44.530;18.620;2023-06-10T03:53:26;15.20;99.90
36416;DHT22;22447;44.530;18.620;2023-06-10T03:55:52;15.30;99.90
36416;DHT22;22447;44.530;18.620;2023-06-10T03:58:21;15.40;99.90
36416;DHT22;22447;44.530;18.620;2023-06-10T04:00:47;15.40;99.90
36416;DHT22;22447;44.530;18.620;2023-06-10T04:03:15;15.50;99.90
36416;DHT22;22447;44.530;18.620;2023-06-10T04:05:44;15.60;99.90
36416;DHT22;22447;44.530;18.620;2023-06-10T04:08:10;15.60;99.90
36416;DHT22;22447;44.530;18.620;2023-06-10T04:10:37;15.70;99.90
36416;DHT22;22447;44.530;18.620;2023-06-10T04:13:03;15.80;99.90
36416;DHT22;22447;44.530;18.620;2023-06-10T04:15:34;15.90;99.90
36416;DHT22;22447;44.530;18.620;2023-06-10T04:18:06;15.80;99.90
36416;DHT22;22447;44.530;18.620;2023-06-10T04:20:32;16.00;99.90
36416;DHT22;22447;44.530;18.620;2023-06-10T04:22:58;16.00;99.90
36416;DHT22;22447;44.530;18.620;2023-06-10T04:25:26;15.90;99.90
36416;DHT22;22447;44.530;18.620;2023-06-10T04:27:53;16.10;99.90
36416;DHT22;22447;44.530;18.620;2023-06-10T04:30:19;16.20;99.90
36416;DHT22;22447;44.530;18.620;2023-06-10T04:32:45;16.20;99.90
36416;DHT22;22447;44.530;18.620;2023-06-10T04:35:15;16.30;99.90
36416;DHT22;22447;44.530;18.620;2023-06-10T04:37:42;16.20;99.90
36416;DHT22;22447;44.530;18.620;2023-06-10T04:40:10;16.10;99.90
36416;DHT22;22447;44.530;18.620;2023-06-10T04:42:36;16.20;99.90
36416;DHT22;22447;44.530;18.620;2023-06-10T04:45:02;16.30;99.90
36416;DHT22;22447;44.530;18.620;2023-06-10T04:47:30;16.40;99.90
36416;DHT22;22447;44.530;18.620;2023-06-10T04:49:59;16.40;99.90
36416;DHT22;22447;44.530;18.620;2023-06-10T04:52:26;16.50;99.90
36416;DHT22;22447;44.530;18.620;2023-06-10T04:54:53;16.70;99.90
36416;DHT22;22447;44.530;18.620;2023-06-10T04:57:20;16.80;99.90
36416;DHT22;22447;44.530;18.620;2023-06-10T04:59:47;16.90;99.90
36416;DHT22;22447;44.530;18.620;2023-06-10T05:02:13;17.00;99.90
36416;DHT22;22447;44.530;18.620;2023-06-10T05:04:39;16.90;99.90
36416;DHT22;22447;44.530;18.620;2023-06-10T05:07:05;17.00;99.90
36416;DHT22;22447;44.530;18.620;2023-06-10T05:09:31;17.00;99.90
36416;DHT22;22447;44.530;18.620;2023-06-10T05:11:58;17.20;99.90
36416;DHT22;22447;44.530;18.620;2023-06-10T05:14:24;17.30;99.90
36416;DHT22;22447;44.530;18.620;2023-06-10T05:16:50;17.40;99.90
36416;DHT22;22447;44.530;18.620;2023-06-10T05:19:16;17.50;99.90
36416;DHT22;22447;44.530;18.620;2023-06-10T05:21:44;17.60;99.90
36416;DHT22;22447;44.530;18.620;2023-06-10T05:24:10;17.60;99.90
36416;DHT22;22447;44.530;18.620;2023-06-10T05:26:36;17.60;99.90
36416;DHT22;22447;44.530;18.620;2023-06-10T05:29:07;17.70;99.90
36416;DHT22;22447;44.530;18.620;2023-06-10T05:31:34;17.80;99.90
36416;DHT22;22447;44.530;18.620;2023-06-10T05:34:00;17.90;99.90
36416;DHT22;22447;44.530;18.620;2023-06-10T05:36:26;17.80;99.90
36416;DHT22;22447;44.530;18.620;2023-06-10T05:38:53;17.80;99.90
36416;DHT22;22447;44.530;18.620;2023-06-10T05:41:20;18.10;99.90
36416;DHT22;22447;44.530;18.620;2023-06-10T05:43:47;18.20;99.90
36416;DHT22;22447;44.530;18.620;2023-06-10T05:46:13;18.40;99.90
36416;DHT22;22447;44.530;18.620;2023-06-10T05:48:39;18.50;99.90
36416;DHT22;22447;44.530;18.620;2023-06-10T05:51:05;18.70;99.90
36416;DHT22;22447;44.530;18.620;2023-06-10T05:53:32;18.90;99.90
36416;DHT22;22447;44.530;18.620;2023-06-10T05:55:58;19.00;99.90
36416;DHT22;22447;44.530;18.620;2023-06-10T05:58:24;19.20;99.90
36416;DHT22;22447;44.530;18.620;2023-06-10T06:00:50;19.00;99.90
36416;DHT22;22447;44.530;18.620;2023-06-10T06:03:16;19.20;99.90
36416;DHT22;22447;44.530;18.620;2023-06-10T06:05:42;19.20;99.90
36416;DHT22;22447;44.530;18.620;2023-06-10T06:08:09;19.30;99.90
36416;DHT22;22447;44.530;18.620;2023-06-10T06:10:35;19.40;99.90
36416;DHT22;22447;44.530;18.620;2023-06-10T06:13:02;19.20;99.90
36416;DHT22;22447;44.530;18.620;2023-06-10T06:15:28;19.30;99.90
36416;DHT22;22447;44.530;18.620;2023-06-10T06:17:54;19.60;99.90
36416;DHT22;22447;44.530;18.620;2023-06-10T06:20:20;19.90;99.90
36416;DHT22;22447;44.530;18.620;2023-06-10T06:22:46;19.80;99.90
36416;DHT22;22447;44.530;18.620;2023-06-10T06:25:12;19.80;99.90
36416;DHT22;22447;44.530;18.620;2023-06-10T06:27:38;19.80;99.90
36416;DHT22;22447;44.530;18.620;2023-06-10T06:30:05;20.00;99.90
36416;DHT22;22447;44.530;18.620;2023-06-10T06:32:31;20.30;99.90
36416;DHT22;22447;44.530;18.620;2023-06-10T06:34:57;20.60;99.90
36416;DHT22;22447;44.530;18.620;2023-06-10T06:37:24;20.80;99.90
36416;DHT22;22447;44.530;18.620;2023-06-10T06:39:59;20.80;99.90
36416;DHT22;22447;44.530;18.620;2023-06-10T06:42:25;20.80;99.90
36416;DHT22;22447;44.530;18.620;2023-06-10T06:44:59;21.10;99.90
36416;DHT22;22447;44.530;18.620;2023-06-10T06:47:25;21.10;99.90
36416;DHT22;22447;44.530;18.620;2023-06-10T06:49:52;21.30;99.90
36416;DHT22;22447;44.530;18.620;2023-06-10T06:52:18;21.50;99.90
36416;DHT22;22447;44.530;18.620;2023-06-10T06:54:44;21.60;99.90
36416;DHT22;22447;44.530;18.620;2023-06-10T06:57:10;21.80;99.90
36416;DHT22;22447;44.530;18.620;2023-06-10T06:59:36;21.80;99.90
36416;DHT22;22447;44.530;18.620;2023-06-10T07:02:03;22.00;99.90
36416;DHT22;22447;44.530;18.620;2023-06-10T07:04:29;22.10;99.90
36416;DHT22;22447;44.530;18.620;2023-06-10T07:06:55;22.40;99.90
36416;DHT22;22447;44.530;18.620;2023-06-10T07:09:21;22.40;99.90
36416;DHT22;22447;44.530;18.620;2023-06-10T07:11:47;22.70;99.90
36416;DHT22;22447;44.530;18.620;2023-06-10T07:14:13;23.00;99.90
36416;DHT22;22447;44.530;18.620;2023-06-10T07:16:39;23.40;99.90
36416;DHT22;22447;44.530;18.620;2023-06-10T07:19:05;23.60;99.90
36416;DHT22;22447;44.530;18.620;2023-06-10T07:21:31;23.90;99.90
36416;DHT22;22447;44.530;18.620;2023-06-10T07:23:58;23.70;99.90
36416;DHT22;22447;44.530;18.620;2023-06-10T07:26:24;24.00;99.90
36416;DHT22;22447;44.530;18.620;2023-06-10T07:28:51;24.40;99.90
36416;DHT22;22447;44.530;18.620;2023-06-10T07:31:17;24.90;99.90
36416;DHT22;22447;44.530;18.620;2023-06-10T07:33:43;25.00;99.90
36416;DHT22;22447;44.530;18.620;2023-06-10T07:36:09;25.50;99.90
36416;DHT22;22447;44.530;18.620;2023-06-10T07:38:36;25.60;99.90
36416;DHT22;22447;44.530;18.620;2023-06-10T07:41:02;25.90;99.90
36416;DHT22;22447;44.530;18.620;2023-06-10T07:43:28;26.20;99.90
36416;DHT22;22447;44.530;18.620;2023-06-10T07:45:54;26.40;99.90
36416;DHT22;22447;44.530;18.620;2023-06-10T07:48:20;25.90;99.90
36416;DHT22;22447;44.530;18.620;2023-06-10T07:50:46;26.30;99.90
36416;DHT22;22447;44.530;18.620;2023-06-10T07:53:12;26.70;99.90
36416;DHT22;22447;44.530;18.620;2023-06-10T07:55:37;27.10;99.90
36416;DHT22;22447;44.530;18.620;2023-06-10T07:58:03;27.40;99.90
36416;DHT22;22447;44.530;18.620;2023-06-10T08:00:29;27.50;99.90
36416;DHT22;22447;44.530;18.620;2023-06-10T08:02:55;27.50;99.90
36416;DHT22;22447;44.530;18.620;2023-06-10T08:05:21;27.10;99.90
36416;DHT22;22447;44.530;18.620;2023-06-10T08:07:47;27.50;99.90
36416;DHT22;22447;44.530;18.620;2023-06-10T08:10:13;27.60;99.90
36416;DHT22;22447;44.530;18.620;2023-06-10T08:12:39;27.60;99.90
36416;DHT22;22447;44.530;18.620;2023-06-10T08:15:05;27.90;99.90
36416;DHT22;22447;44.530;18.620;2023-06-10T08:17:32;28.10;99.90
36416;DHT22;22447;44.530;18.620;2023-06-10T08:19:57;28.30;99.90
36416;DHT22;22447;44.530;18.620;2023-06-10T08:22:23;28.30;99.90
36416;DHT22;22447;44.530;18.620;2023-06-10T08:24:49;28.50;99.90
36416;DHT22;22447;44.530;18.620;2023-06-10T08:27:15;28.20;99.90
36416;DHT22;22447;44.530;18.620;2023-06-10T08:29:41;28.50;99.90
36416;DHT22;22447;44.530;18.620;2023-06-10T08:32:07;28.70;99.90
36416;DHT22;22447;44.530;18.620;2023-06-10T08:34:34;29.00;99.90
36416;DHT22;22447;44.530;18.620;2023-06-10T08:37:03;29.20;99.90
36416;DHT22;22447;44.530;18.620;2023-06-10T08:39:29;29.40;99.90
36416;DHT22;22447;44.530;18.620;2023-06-10T08:42:38;29.20;99.90
36416;DHT22;22447;44.530;18.620;2023-06-10T08:45:07;28.50;99.90
36416;DHT22;22447;44.530;18.620;2023-06-10T08:47:39;28.90;99.90
36416;DHT22;22447;44.530;18.620;2023-06-10T08:50:07;29.10;99.90
36416;DHT22;22447;44.530;18.620;2023-06-10T08:52:36;29.00;99.90
36416;DHT22;22447;44.530;18.620;2023-06-10T08:55:15;28.60;99.90
36416;DHT22;22447;44.530;18.620;2023-06-10T08:57:42;28.00;99.90
36416;DHT22;22447;44.530;18.620;2023-06-10T09:00:10;28.50;99.90
36416;DHT22;22447;44.530;18.620;2023-06-10T09:02:38;28.30;99.90
36416;DHT22;22447;44.530;18.620;2023-06-10T09:05:04;28.80;99.90
36416;DHT22;22447;44.530;18.620;2023-06-10T09:07:31;29.40;99.90
36416;DHT22;22447;44.530;18.620;2023-06-10T09:09:57;29.60;99.90
36416;DHT22;22447;44.530;18.620;2023-06-10T09:12:24;29.80;99.90
36416;DHT22;22447;44.530;18.620;2023-06-10T09:14:50;30.50;99.90
36416;DHT22;22447;44.530;18.620;2023-06-10T09:17:17;30.70;99.90
36416;DHT22;22447;44.530;18.620;2023-06-10T09:19:44;30.60;99.90
36416;DHT22;22447;44.530;18.620;2023-06-10T09:22:11;30.90;99.90
36416;DHT22;22447;44.530;18.620;2023-06-10T09:24:37;31.00;99.90
36416;DHT22;22447;44.530;18.620;2023-06-10T09:27:06;31.00;99.90
36416;DHT22;22447;44.530;18.620;2023-06-10T09:29:52;31.40;99.90
36416;DHT22;22447;44.530;18.620;2023-06-10T09:32:19;31.00;99.90
36416;DHT22;22447;44.530;18.620;2023-06-10T09:34:46;30.30;99.90
36416;DHT22;22447;44.530;18.620;2023-06-10T09:37:13;30.90;99.90
36416;DHT22;22447;44.530;18.620;2023-06-10T09:39:42;31.50;99.90
36416;DHT22;22447;44.530;18.620;2023-06-10T09:42:19;31.90;99.90
36416;DHT22;22447;44.530;18.620;2023-06-10T09:44:50;31.80;99.90
36416;DHT22;22447;44.530;18.620;2023-06-10T09:47:22;31.40;99.90
36416;DHT22;22447;44.530;18.620;2023-06-10T09:49:49;31.40;99.90
36416;DHT22;22447;44.530;18.620;2023-06-10T09:52:26;30.70;99.90
36416;DHT22;22447;44.530;18.620;2023-06-10T09:54:53;30.00;99.90
36416;DHT22;22447;44.530;18.620;2023-06-10T09:57:21;28.80;99.90
36416;DHT22;22447;44.530;18.620;2023-06-10T09:59:47;28.10;99.90
36416;DHT22;22447;44.530;18.620;2023-06-10T10:02:16;27.70;99.90
36416;DHT22;22447;44.530;18.620;2023-06-10T10:04:46;27.60;99.90
36416;DHT22;22447;44.530;18.620;2023-06-10T10:07:13;27.20;99.90
36416;DHT22;22447;44.530;18.620;2023-06-10T10:09:40;26.80;99.90
36416;DHT22;22447;44.530;18.620;2023-06-10T10:12:12;26.60;99.90
36416;DHT22;22447;44.530;18.620;2023-06-10T10:14:39;26.80;99.90
36416;DHT22;22447;44.530;18.620;2023-06-10T10:17:10;26.60;99.90
36416;DHT22;22447;44.530;18.620;2023-06-10T10:20:03;26.30;99.90
36416;DHT22;22447;44.530;18.620;2023-06-10T10:22:38;26.40;99.90
36416;DHT22;22447;44.530;18.620;2023-06-10T10:25:16;26.90;99.90
36416;DHT22;22447;44.530;18.620;2023-06-10T10:27:55;27.50;99.90
36416;DHT22;22447;44.530;18.620;2023-06-10T10:30:22;26.80;99.90
36416;DHT22;22447;44.530;18.620;2023-06-10T10:32:56;27.60;99.90
36416;DHT22;22447;44.530;18.620;2023-06-10T10:35:23;28.60;99.90
36416;DHT22;22447;44.530;18.620;2023-06-10T10:37:54;29.20;99.90
36416;DHT22;22447;44.530;18.620;2023-06-10T10:40:21;28.80;99.90
36416;DHT22;22447;44.530;18.620;2023-06-10T10:42:48;29.60;99.90
36416;DHT22;22447;44.530;18.620;2023-06-10T10:45:15;29.60;99.90
36416;DHT22;22447;44.530;18.620;2023-06-10T10:47:44;29.70;99.90
36416;DHT22;22447;44.530;18.620;2023-06-10T10:50:20;29.70;99.90
36416;DHT22;22447;44.530;18.620;2023-06-10T10:52:52;29.70;99.90
36416;DHT22;22447;44.530;18.620;2023-06-10T10:55:19;29.20;99.90
36416;DHT22;22447;44.530;18.620;2023-06-10T11:00:31;29.00;99.90
36416;DHT22;22447;44.530;18.620;2023-06-10T11:03:05;29.00;99.90
36416;DHT22;22447;44.530;18.620;2023-06-10T11:05:36;28.30;99.90
36416;DHT22;22447;44.530;18.620;2023-06-10T11:08:04;27.70;99.90
36416;DHT22;22447;44.530;18.620;2023-06-10T11:10:40;26.80;99.90
36416;DHT22;22447;44.530;18.620;2023-06-10T11:15:38;25.20;99.90
36416;DHT22;22447;44.530;18.620;2023-06-10T11:18:25;23.90;99.90
36416;DHT22;22447;44.530;18.620;2023-06-10T11:20:53;23.50;99.90
36416;DHT22;22447;44.530;18.620;2023-06-10T11:26:19;23.20;99.90
36416;DHT22;22447;44.530;18.620;2023-06-10T11:31:23;22.50;99.90
36416;DHT22;22447;44.530;18.620;2023-06-10T11:33:59;22.50;99.90
36416;DHT22;22447;44.530;18.620;2023-06-10T11:36:26;22.10;99.90
36416;DHT22;22447;44.530;18.620;2023-06-10T11:39:01;21.90;99.90
36416;DHT22;22447;44.530;18.620;2023-06-10T11:41:29;21.70;99.90
36416;DHT22;22447;44.530;18.620;2023-06-10T11:44:01;21.70;99.90
36416;DHT22;22447;44.530;18.620;2023-06-10T11:46:27;21.90;99.90
36416;DHT22;22447;44.530;18.620;2023-06-10T11:48:55;22.50;99.90
36416;DHT22;22447;44.530;18.620;2023-06-10T11:51:21;23.40;99.90
36416;DHT22;22447;44.530;18.620;2023-06-10T11:53:48;24.20;99.90
36416;DHT22;22447;44.530;18.620;2023-06-10T11:56:23;24.70;99.90
36416;DHT22;22447;44.530;18.620;2023-06-10T11:58:56;25.30;99.90
36416;DHT22;22447;44.530;18.620;2023-06-10T12:01:24;25.60;99.90
36416;DHT22;22447;44.530;18.620;2023-06-10T12:03:58;25.30;99.90
36416;DHT22;22447;44.530;18.620;2023-06-10T12:06:24;25.60;99.90
36416;DHT22;22447;44.530;18.620;2023-06-10T12:08:50;26.20;99.90
36416;DHT22;22447;44.530;18.620;2023-06-10T12:11:16;26.70;99.90
36416;DHT22;22447;44.530;18.620;2023-06-10T12:13:49;26.90;99.90
36416;DHT22;22447;44.530;18.620;2023-06-10T12:16:16;27.10;99.90
36416;DHT22;22447;44.530;18.620;2023-06-10T12:18:46;27.80;99.90
36416;DHT22;22447;44.530;18.620;2023-06-10T12:21:38;28.20;99.90
36416;DHT22;22447;44.530;18.620;2023-06-10T12:24:09;28.50;99.90
36416;DHT22;22447;44.530;18.620;2023-06-10T12:26:40;28.70;99.90
36416;DHT22;22447;44.530;18.620;2023-06-10T12:29:27;28.90;99.90
36416;DHT22;22447;44.530;18.620;2023-06-10T12:31:56;29.40;99.90
36416;DHT22;22447;44.530;18.620;2023-06-10T12:34:39;29.70;99.90
36416;DHT22;22447;44.530;18.620;2023-06-10T12:37:10;30.00;99.90
36416;DHT22;22447;44.530;18.620;2023-06-10T12:39:39;30.20;99.90
36416;DHT22;22447;44.530;18.620;2023-06-10T12:42:06;30.70;99.90
36416;DHT22;22447;44.530;18.620;2023-06-10T12:44:41;30.70;99.90
36416;DHT22;22447;44.530;18.620;2023-06-10T12:47:13;30.20;99.90
36416;DHT22;22447;44.530;18.620;2023-06-10T12:49:39;29.90;99.90
36416;DHT22;22447;44.530;18.620;2023-06-10T12:52:06;30.30;99.90
36416;DHT22;22447;44.530;18.620;2023-06-10T12:54:32;30.30;99.90
36416;DHT22;22447;44.530;18.620;2023-06-10T12:56:58;29.60;99.90
36416;DHT22;22447;44.530;18.620;2023-06-10T12:59:24;30.10;99.90
36416;DHT22;22447;44.530;18.620;2023-06-10T13:01:51;29.80;99.90
36416;DHT22;22447;44.530;18.620;2023-06-10T13:04:17;29.70;99.90
36416;DHT22;22447;44.530;18.620;2023-06-10T13:06:44;29.80;99.90
36416;DHT22;22447;44.530;18.620;2023-06-10T13:09:10;29.60;99.90
36416;DHT22;22447;44.530;18.620;2023-06-10T13:11:36;29.60;99.90
36416;DHT22;22447;44.530;18.620;2023-06-10T13:14:04;29.10;99.90
36416;DHT22;22447;44.530;18.620;2023-06-10T13:16:31;28.40;99.90
36416;DHT22;22447;44.530;18.620;2023-06-10T13:18:57;28.00;99.90
36416;DHT22;22447;44.530;18.620;2023-06-10T13:21:23;27.80;99.90
36416;DHT22;22447;44.530;18.620;2023-06-10T13:23:50;27.70;99.90
36416;DHT22;22447;44.530;18.620;2023-06-10T13:26:16;26.90;99.90
36416;DHT22;22447;44.530;18.620;2023-06-10T13:28:45;26.50;99.90
36416;DHT22;22447;44.530;18.620;2023-06-10T13:31:11;25.90;99.90
36416;DHT22;22447;44.530;18.620;2023-06-10T13:33:37;26.30;99.90
36416;DHT22;22447;44.530;18.620;2023-06-10T13:36:04;26.50;99.90
36416;DHT22;22447;44.530;18.620;2023-06-10T13:38:30;26.30;99.90
36416;DHT22;22447;44.530;18.620;2023-06-10T13:40:56;26.40;99.90
36416;DHT22;22447;44.530;18.620;2023-06-10T13:43:22;26.50;99.90
36416;DHT22;22447;44.530;18.620;2023-06-10T13:45:48;26.50;99.90
36416;DHT22;22447;44.530;18.620;2023-06-10T13:48:14;26.60;99.90
36416;DHT22;22447;44.530;18.620;2023-06-10T13:50:39;26.10;99.90
36416;DHT22;22447;44.530;18.620;2023-06-10T13:53:05;26.50;99.90
36416;DHT22;22447;44.530;18.620;2023-06-10T13:55:31;26.60;99.90
36416;DHT22;22447;44.530;18.620;2023-06-10T13:57:57;26.80;99.90
36416;DHT22;22447;44.530;18.620;2023-06-10T14:00:23;26.70;99.90
36416;DHT22;22447;44.530;18.620;2023-06-10T14:02:49;26.80;99.90
36416;DHT22;22447;44.530;18.620;2023-06-10T14:05:15;26.90;99.90
36416;DHT22;22447;44.530;18.620;2023-06-10T14:07:41;26.90;99.90
36416;DHT22;22447;44.530;18.620;2023-06-10T14:10:07;27.00;99.90
36416;DHT22;22447;44.530;18.620;2023-06-10T14:12:34;27.20;99.90
36416;DHT22;22447;44.530;18.620;2023-06-10T14:15:01;27.30;99.90
36416;DHT22;22447;44.530;18.620;2023-06-10T14:17:27;27.60;99.90
36416;DHT22;22447;44.530;18.620;2023-06-10T14:19:53;27.60;99.90
36416;DHT22;22447;44.530;18.620;2023-06-10T14:22:18;27.60;99.90
36416;DHT22;22447;44.530;18.620;2023-06-10T14:24:45;27.50;99.90
36416;DHT22;22447;44.530;18.620;2023-06-10T14:27:12;27.00;99.90
36416;DHT22;22447;44.530;18.620;2023-06-10T14:29:38;27.00;99.90
36416;DHT22;22447;44.530;18.620;2023-06-10T14:32:04;26.90;99.90
36416;DHT22;22447;44.530;18.620;2023-06-10T14:34:30;27.00;99.90
36416;DHT22;22447;44.530;18.620;2023-06-10T14:37:00;26.70;99.90
36416;DHT22;22447;44.530;18.620;2023-06-10T14:39:26;26.60;99.90
36416;DHT22;22447;44.530;18.620;2023-06-10T14:41:52;26.50;99.90
36416;DHT22;22447;44.530;18.620;2023-06-10T14:44:20;26.20;99.90
36416;DHT22;22447;44.530;18.620;2023-06-10T14:46:46;26.00;99.90
36416;DHT22;22447;44.530;18.620;2023-06-10T14:49:13;26.00;99.90
36416;DHT22;22447;44.530;18.620;2023-06-10T14:51:39;25.80;99.90
36416;DHT22;22447;44.530;18.620;2023-06-10T14:54:05;25.60;99.90
36416;DHT22;22447;44.530;18.620;2023-06-10T14:56:31;25.60;99.90
36416;DHT22;22447;44.530;18.620;2023-06-10T14:58:57;25.60;99.90
36416;DHT22;22447;44.530;18.620;2023-06-10T15:01:22;25.40;99.90
36416;DHT22;22447;44.530;18.620;2023-06-10T15:03:48;25.30;99.90
36416;DHT22;22447;44.530;18.620;2023-06-10T15:06:15;25.20;99.90
36416;DHT22;22447;44.530;18.620;2023-06-10T15:08:46;25.30;99.90
36416;DHT22;22447;44.530;18.620;2023-06-10T15:11:15;25.40;99.90
36416;DHT22;22447;44.530;18.620;2023-06-10T15:13:41;25.40;99.90
36416;DHT22;22447;44.530;18.620;2023-06-10T15:16:06;25.50;99.90
36416;DHT22;22447;44.530;18.620;2023-06-10T15:18:33;25.40;99.90
36416;DHT22;22447;44.530;18.620;2023-06-10T15:20:59;25.40;99.90
36416;DHT22;22447;44.530;18.620;2023-06-10T15:23:25;25.40;99.90
36416;DHT22;22447;44.530;18.620;2023-06-10T15:25:51;25.50;99.90
36416;DHT22;22447;44.530;18.620;2023-06-10T15:28:17;25.50;99.90
36416;DHT22;22447;44.530;18.620;2023-06-10T15:30:43;25.60;99.90